Time;durP1;ratioP1;P1;durP2;ratioP2;P2;SDS_P1;SDS_P2;PMS_P1;PMS_P2;Temp;Humidity;BMP_temperature;BMP_pressure;BME280_temperature;BME280_humidity;BME280_pressure;Samples;Min_cycle;Max_cycle;Signal;HPM_P1;HPM_P2
2023/05/07 00:02:12;;;;;;;8.30;7.50;;;;;;;16.33;79.27;95549.25;4979868;28;20822;-89
2023/05/07 00:04:43;;;;;;;10.05;7.47;;;;;;;16.32;79.73;95552.84;4997213;28;20200;-88
2023/05/07 00:07:10;;;;;;;7.90;7.10;;;;;;;16.21;80.28;95554.31;5000348;28;20229;-87
2023/05/07 00:09:37;;;;;;;9.43;8.32;;;;;;;16.24;80.22;95561.69;5000264;28;20277;-88
2023/05/07 00:12:03;;;;;;;8.18;7.47;;;;;;;16.22;79.75;95556.72;4999813;28;20207;-89
2023/05/07 00:14:33;;;;;;;8.38;7.50;;;;;;;16.20;80.46;95552.72;4999326;28;20231;-88
2023/05/07 00:16:59;;;;;;;10.68;8.38;;;;;;;16.12;80.46;95551.22;4999596;28;20215;-89
2023/05/07 00:19:26;;;;;;;8.18;7.38;;;;;;;16.23;79.87;95558.28;5000534;28;20215;-88
2023/05/07 00:21:54;;;;;;;8.10;6.70;;;;;;;16.22;79.81;95550.72;4999957;28;20199;-88
2023/05/07 00:24:21;;;;;;;8.77;6.78;;;;;;;16.19;80.07;95549.34;5000896;28;20218;-88
2023/05/07 00:26:47;;;;;;;7.65;6.95;;;;;;;16.11;80.12;95541.81;5001134;28;20230;-88
2023/05/07 00:29:13;;;;;;;7.47;6.72;;;;;;;16.11;80.23;95543.63;5001775;28;20215;-87
2023/05/07 00:31:40;;;;;;;7.90;7.10;;;;;;;16.07;80.91;95542.44;5001361;28;20226;-89
2023/05/07 00:34:06;;;;;;;9.10;8.20;;;;;;;16.09;80.78;95538.63;5000451;28;20216;-88
2023/05/07 00:36:33;;;;;;;8.93;8.02;;;;;;;16.05;81.01;95536.66;5001268;28;20254;-89
2023/05/07 00:39:03;;;;;;;9.55;8.55;;;;;;;16.04;81.08;95527.28;5001214;28;20203;-88
2023/05/07 00:41:30;;;;;;;8.38;7.57;;;;;;;15.99;81.64;95527.91;5000622;28;20204;-89
2023/05/07 00:43:56;;;;;;;7.35;6.65;;;;;;;16.06;81.44;95531.25;5000344;28;20204;-88
2023/05/07 00:46:23;;;;;;;7.60;6.88;;;;;;;16.10;81.83;95540.22;5001331;28;20199;-88
2023/05/07 00:48:53;;;;;;;7.28;6.63;;;;;;;16.14;80.78;95548.41;5000874;28;20204;-87
2023/05/07 00:51:32;;;;;;;9.57;8.52;;;;;;;16.03;81.47;95544.66;5001319;28;20211;-88
2023/05/07 00:54:00;;;;;;;7.82;7.05;;;;;;;16.05;81.41;95544.47;4982551;28;20286;-87
2023/05/07 00:56:27;;;;;;;10.70;9.55;;;;;;;16.03;81.94;95541.28;4995447;28;20805;-88
2023/05/07 00:58:59;;;;;;;11.80;10.50;;;;;;;16.11;81.52;95535.84;5000508;28;20220;-88
2023/05/07 01:01:27;;;;;;;15.25;12.43;;;;;;;16.03;81.78;95541.28;5000868;28;20223;-87
2023/05/07 01:03:54;;;;;;;10.35;9.23;;;;;;;16.02;81.77;95547.47;4999565;28;20282;-89
2023/05/07 01:06:22;;;;;;;9.40;7.90;;;;;;;16.09;81.37;95546.44;5002968;28;20254;-88
2023/05/07 01:08:50;;;;;;;17.00;12.70;;;;;;;16.03;82.25;95542.06;5002225;28;20216;-89
2023/05/07 01:11:21;;;;;;;10.05;8.82;;;;;;;16.06;81.46;95535.66;5000684;28;20600;-88
2023/05/07 01:13:51;;;;;;;15.75;10.70;;;;;;;16.01;81.92;95541.47;4999560;28;20675;-89
2023/05/07 01:16:27;;;;;;;11.93;10.02;;;;;;;16.00;81.59;95537.28;5000693;28;20204;-89
2023/05/07 01:18:53;;;;;;;12.25;11.00;;;;;;;15.97;82.15;95532.50;4999787;28;20219;-87
2023/05/07 01:21:27;;;;;;;9.05;7.45;;;;;;;16.00;81.31;95539.88;4999601;28;20196;-87
2023/05/07 01:23:56;;;;;;;10.20;7.45;;;;;;;15.97;81.57;95537.72;4996231;28;20261;-87
2023/05/07 01:26:23;;;;;;;7.13;6.43;;;;;;;15.98;81.40;95544.50;4980610;28;20625;-88
2023/05/07 01:28:50;;;;;;;8.43;7.63;;;;;;;16.04;81.54;95532.47;4997183;28;20203;-87
2023/05/07 01:31:20;;;;;;;10.80;9.63;;;;;;;16.02;81.74;95530.09;4999120;28;20219;-87
2023/05/07 01:33:49;;;;;;;8.13;7.30;;;;;;;15.97;81.85;95527.31;4999430;28;20263;-89
2023/05/07 01:36:18;;;;;;;7.90;7.05;;;;;;;16.00;81.58;95526.09;5000284;28;20204;-88
2023/05/07 01:38:45;;;;;;;8.18;7.38;;;;;;;15.76;83.24;95523.31;5000241;28;20211;-88
2023/05/07 01:41:13;;;;;;;9.50;8.57;;;;;;;15.67;84.27;95527.13;5000205;28;20231;-89
2023/05/07 01:43:41;;;;;;;9.85;8.75;;;;;;;15.66;84.92;95527.34;5000431;28;20203;-88
2023/05/07 01:46:11;;;;;;;8.80;7.72;;;;;;;15.77;84.47;95524.09;4999794;28;20255;-87
2023/05/07 01:48:45;;;;;;;7.55;6.85;;;;;;;15.88;83.68;95524.19;4999868;28;20219;-88
2023/05/07 01:51:12;;;;;;;8.05;7.25;;;;;;;15.90;83.69;95521.41;5000096;28;20207;-89
2023/05/07 01:53:40;;;;;;;10.10;9.05;;;;;;;15.95;82.63;95521.56;4999063;28;20203;-88
2023/05/07 01:56:10;;;;;;;9.75;8.75;;;;;;;15.96;83.05;95517.16;4994425;28;20219;-88
2023/05/07 01:58:40;;;;;;;8.25;7.45;;;;;;;15.97;83.00;95516.94;4999512;28;20247;-88
2023/05/07 02:01:09;;;;;;;10.13;9.10;;;;;;;15.93;82.96;95518.38;4998660;28;20263;-87
2023/05/07 02:03:35;;;;;;;11.60;9.05;;;;;;;15.87;83.40;95524.41;4998415;28;20214;-87
2023/05/07 02:06:02;;;;;;;8.32;7.43;;;;;;;15.85;83.12;95526.41;4999246;28;20203;-88
2023/05/07 02:08:28;;;;;;;7.68;6.85;;;;;;;15.88;82.98;95524.19;4998796;28;20743;-88
2023/05/07 02:10:54;;;;;;;10.48;8.70;;;;;;;15.93;83.01;95528.78;4999981;28;20199;-88
2023/05/07 02:13:22;;;;;;;16.48;13.75;;;;;;;15.87;83.45;95524.41;4998749;28;20278;-88
2023/05/07 02:15:50;;;;;;;11.60;9.88;;;;;;;15.91;83.21;95528.19;4998460;28;20262;-89
2023/05/07 02:18:20;;;;;;;11.25;10.15;;;;;;;15.87;83.16;95533.00;4998866;28;20234;-89
2023/05/07 02:20:48;;;;;;;12.77;11.02;;;;;;;15.79;83.83;95524.66;4998922;28;20199;-88
2023/05/07 02:23:15;;;;;;;10.05;8.88;;;;;;;15.77;83.67;95524.09;4998679;28;20227;-87
2023/05/07 02:25:41;;;;;;;10.85;9.75;;;;;;;15.79;83.73;95522.06;4998652;28;20274;-88
2023/05/07 02:28:12;;;;;;;12.75;11.40;;;;;;;15.82;83.62;95530.22;4998826;28;20227;-88
2023/05/07 02:30:40;;;;;;;9.85;8.82;;;;;;;15.86;83.43;95521.03;4998531;28;20191;-88
2023/05/07 02:33:12;;;;;;;9.80;8.80;;;;;;;15.85;84.15;95523.81;4999836;28;20235;-88
2023/05/07 02:35:38;;;;;;;8.68;7.75;;;;;;;15.85;83.31;95523.81;4997440;28;20742;-87
2023/05/07 02:38:06;;;;;;;8.25;7.45;;;;;;;15.84;83.55;95535.22;4998131;28;20207;-88
2023/05/07 02:40:38;;;;;;;14.80;12.05;;;;;;;15.84;83.60;95525.63;4998569;28;20199;-88
2023/05/07 02:43:06;;;;;;;11.38;9.60;;;;;;;15.88;83.58;95534.59;4998151;28;20203;-88
2023/05/07 02:45:33;;;;;;;11.05;8.73;;;;;;;15.94;83.17;95526.97;4998636;28;20218;-87
2023/05/07 02:47:59;;;;;;;8.88;7.70;;;;;;;15.90;83.22;95529.19;4998786;28;20243;-88
2023/05/07 02:50:27;;;;;;;7.93;7.22;;;;;;;15.85;83.79;95532.41;4999187;28;20191;-88
2023/05/07 02:52:53;;;;;;;9.50;8.55;;;;;;;15.82;83.96;95530.22;4999686;28;20230;-87
2023/05/07 02:55:20;;;;;;;10.23;8.20;;;;;;;15.83;83.72;95538.81;4998631;28;20223;-86
2023/05/07 02:57:46;;;;;;;8.63;6.88;;;;;;;15.86;83.54;95530.59;4998129;28;20238;-88
2023/05/07 03:00:15;;;;;;;9.02;7.47;;;;;;;15.89;83.03;95528.38;4998634;28;20227;-88
2023/05/07 03:02:41;;;;;;;8.45;7.65;;;;;;;15.92;82.99;95532.38;4997719;28;20203;-87
2023/05/07 03:05:08;;;;;;;9.27;7.85;;;;;;;15.98;82.78;95520.31;4998937;28;20208;-88
2023/05/07 03:07:36;;;;;;;11.05;8.00;;;;;;;15.90;83.08;95524.00;4999043;28;20322;-88
2023/05/07 03:10:03;;;;;;;7.97;7.20;;;;;;;15.83;83.28;95526.63;4998088;28;20258;-87
2023/05/07 03:12:32;;;;;;;10.60;6.82;;;;;;;15.88;82.81;95526.00;4999388;28;20204;-88
2023/05/07 03:14:59;;;;;;;8.10;7.30;;;;;;;15.86;83.02;95522.81;4998747;28;20226;-87
2023/05/07 03:17:25;;;;;;;8.57;7.68;;;;;;;15.89;83.16;95528.38;4997933;28;20219;-87
2023/05/07 03:19:52;;;;;;;7.65;6.95;;;;;;;15.91;82.91;95519.59;4998540;28;20643;-88
2023/05/07 03:22:18;;;;;;;7.85;7.15;;;;;;;15.97;82.51;95519.53;4999182;28;20203;-88
2023/05/07 03:24:49;;;;;;;7.25;6.55;;;;;;;15.98;82.30;95518.53;4997962;28;20196;-87
2023/05/07 03:27:18;;;;;;;7.45;6.70;;;;;;;15.92;82.28;95514.19;4998073;28;20212;-87
2023/05/07 03:29:44;;;;;;;7.22;6.53;;;;;;;15.81;82.86;95517.44;4997906;28;20279;-87
2023/05/07 03:32:11;;;;;;;6.80;6.20;;;;;;;15.69;83.20;95516.53;4998222;28;20208;-89
2023/05/07 03:34:42;;;;;;;7.30;6.43;;;;;;;15.74;83.07;95519.31;4998724;28;20263;-88
2023/05/07 03:37:11;;;;;;;6.60;5.88;;;;;;;15.77;82.98;95518.91;4998546;28;20235;-87
2023/05/07 03:39:43;;;;;;;6.82;5.88;;;;;;;15.77;82.94;95513.72;4979994;28;20211;-88
2023/05/07 03:42:11;;;;;;;7.78;6.97;;;;;;;15.73;83.21;95521.13;4995531;28;20199;-88
2023/05/07 03:44:37;;;;;;;8.32;7.25;;;;;;;15.67;83.59;95521.94;4998391;28;20582;-87
2023/05/07 03:47:07;;;;;;;10.43;7.68;;;;;;;15.66;83.26;95520.34;4997651;28;20219;-88
2023/05/07 03:49:36;;;;;;;6.72;6.13;;;;;;;15.59;83.69;95517.00;4998642;28;20195;-88
2023/05/07 03:52:04;;;;;;;7.18;6.53;;;;;;;15.57;83.06;95521.63;5000056;28;20212;-88
2023/05/07 03:54:37;;;;;;;7.28;6.32;;;;;;;15.41;83.92;95515.06;4999855;28;20210;-88
2023/05/07 03:57:17;;;;;;;7.25;6.35;;;;;;;15.31;84.83;95519.94;4999436;28;20224;-89
2023/05/07 03:59:46;;;;;;;6.97;6.28;;;;;;;15.38;84.46;95528.47;4999892;28;20203;-88
2023/05/07 04:02:23;;;;;;;6.97;6.28;;;;;;;15.34;84.47;95532.50;4998605;28;20204;-88
2023/05/07 04:07:38;;;;;;;6.63;6.03;;;;;;;15.45;83.93;95533.63;4999101;28;20243;-87
2023/05/07 04:10:05;;;;;;;6.72;6.13;;;;;;;15.50;83.55;95529.41;4998663;28;20199;-88
2023/05/07 04:12:38;;;;;;;7.82;7.07;;;;;;;15.47;83.62;95536.81;4999159;28;20246;-88
2023/05/07 04:15:06;;;;;;;8.38;6.93;;;;;;;15.51;83.19;95538.78;5000261;28;20234;-88
2023/05/07 04:17:32;;;;;;;6.25;5.65;;;;;;;15.49;83.64;95540.78;4999982;28;20787;-89
2023/05/07 04:19:58;;;;;;;6.50;5.95;;;;;;;15.52;83.68;95548.16;4999056;28;20366;-88
2023/05/07 04:22:25;;;;;;;7.43;6.10;;;;;;;15.57;83.25;95555.34;5000407;28;20204;-89
2023/05/07 04:24:51;;;;;;;6.95;6.25;;;;;;;15.54;83.16;95553.94;5000954;28;20214;-89
2023/05/07 04:27:18;;;;;;;6.35;5.75;;;;;;;15.46;83.96;95554.16;4999408;28;20242;-88
2023/05/07 04:29:47;;;;;;;7.47;5.72;;;;;;;15.50;83.59;95552.75;5001650;28;20211;-88
2023/05/07 04:32:13;;;;;;;6.32;5.80;;;;;;;15.52;83.43;95557.75;5001409;28;20210;-87
2023/05/07 04:34:42;;;;;;;6.55;5.80;;;;;;;15.48;83.36;95559.16;4999983;28;20210;-89
2023/05/07 04:37:09;;;;;;;6.82;6.13;;;;;;;15.38;84.46;95556.22;5000904;28;20290;-89
2023/05/07 04:39:36;;;;;;;7.80;6.00;;;;;;;15.42;84.51;95558.16;5003064;28;20255;-88
2023/05/07 04:42:03;;;;;;;6.43;5.63;;;;;;;15.54;84.18;95558.34;5002375;28;20238;-88
2023/05/07 04:44:30;;;;;;;6.53;5.93;;;;;;;15.65;83.57;95551.72;5002652;28;20208;-88
2023/05/07 04:47:01;;;;;;;6.50;5.90;;;;;;;15.76;83.06;95554.44;5003122;28;20259;-88
2023/05/07 04:49:29;;;;;;;5.97;5.47;;;;;;;15.89;82.21;95548.38;4983462;28;20209;-88
2023/05/07 04:51:55;;;;;;;6.53;5.53;;;;;;;15.98;81.92;95551.50;5002539;28;20199;-88
2023/05/07 04:54:21;;;;;;;5.80;5.30;;;;;;;16.07;81.56;95556.22;5002212;28;20196;-87
2023/05/07 04:56:48;;;;;;;5.80;5.30;;;;;;;16.10;81.77;95555.81;5001238;28;20220;-88
2023/05/07 04:59:14;;;;;;;6.40;5.80;;;;;;;16.08;81.79;95557.81;5002126;28;20196;-87
2023/05/07 05:01:44;;;;;;;6.88;5.72;;;;;;;16.10;81.34;95555.81;5001457;28;20199;-87
2023/05/07 05:04:12;;;;;;;7.03;5.97;;;;;;;16.19;80.97;95557.13;4999626;28;20188;-88
2023/05/07 05:06:39;;;;;;;5.72;5.10;;;;;;;16.27;80.96;95571.66;5001097;28;20227;-88
2023/05/07 05:09:05;;;;;;;5.57;5.00;;;;;;;16.31;80.64;95564.25;5002215;28;20215;-88
2023/05/07 05:11:32;;;;;;;5.05;4.45;;;;;;;16.38;80.43;95564.97;5002860;28;20203;-88
2023/05/07 05:14:00;;;;;;;5.30;4.63;;;;;;;16.42;80.01;95560.94;5002701;28;20195;-88
2023/05/07 05:16:30;;;;;;;5.90;5.40;;;;;;;16.45;79.97;95561.31;5001877;28;20227;-87
2023/05/07 05:18:57;;;;;;;5.68;5.18;;;;;;;16.44;79.99;95559.72;4983439;28;20281;-87
2023/05/07 05:21:32;;;;;;;5.57;5.07;;;;;;;16.52;80.10;95550.88;4982421;28;20239;-87
2023/05/07 05:26:42;;;;;;;5.18;4.70;;;;;;;16.68;78.58;95560.75;4983948;28;20262;-87
2023/05/07 05:29:13;;;;;;;5.22;4.78;;;;;;;16.64;78.45;95556.97;5000373;28;20199;-87
2023/05/07 05:32:02;;;;;;;4.93;4.32;;;;;;;16.64;77.93;95562.19;4998376;28;20234;-88
2023/05/07 05:34:51;;;;;;;4.82;4.43;;;;;;;16.71;78.06;95559.53;4994562;28;20199;-88
2023/05/07 05:37:23;;;;;;;5.03;4.63;;;;;;;16.77;77.76;95556.84;4999879;28;20227;-88
2023/05/07 05:42:52;;;;;;;4.82;4.35;;;;;;;16.89;78.10;95565.53;4998639;28;20250;-89
2023/05/07 05:45:41;;;;;;;5.22;4.82;;;;;;;17.01;77.84;95563.00;4998012;28;20198;-87
2023/05/07 05:48:20;;;;;;;5.50;5.10;;;;;;;17.08;77.16;95563.75;4997483;28;20211;-89
2023/05/07 05:59:51;;;;;;;4.45;4.07;;;;;;;17.12;76.74;95566.69;5016588;28;20614;-88
2023/05/07 06:02:32;;;;;;;4.43;4.10;;;;;;;17.19;76.84;95568.19;4999742;28;20254;-88
2023/05/07 06:08:06;;;;;;;;;;;;;;;;;;;;;
2023/05/07 06:10:50;;;;;;;4.70;4.10;;;;;;;17.21;75.42;95558.38;5005102;28;20263;-87
2023/05/07 06:13:17;;;;;;;5.10;4.70;;;;;;;17.17;75.65;95559.81;5019325;28;20234;-88
2023/05/07 06:15:44;;;;;;;8.20;4.10;;;;;;;17.12;75.49;95564.09;5012903;28;20227;-88
2023/05/07 06:21:30;;;;;;;4.00;3.70;;;;;;;17.37;76.03;95559.59;4878532;29;20243;-85
2023/05/07 06:23:56;;;;;;;5.65;3.80;;;;;;;17.39;76.25;95559.38;4927159;29;20205;-88
2023/05/07 06:26:25;;;;;;;3.88;3.58;;;;;;;17.45;75.37;95567.09;5004178;28;20195;-90
2023/05/07 06:29:11;;;;;;;4.60;4.20;;;;;;;17.48;75.86;95561.47;5019245;28;20302;-87
2023/05/07 06:31:50;;;;;;;4.63;4.22;;;;;;;17.47;74.33;95556.47;5018794;28;20205;-87
2023/05/07 06:34:17;;;;;;;4.30;3.92;;;;;;;17.51;74.05;95557.63;5018937;28;20202;-88
2023/05/07 06:36:46;;;;;;;4.85;4.45;;;;;;;17.61;74.83;95560.47;5017526;28;20230;-88
2023/05/07 06:39:14;;;;;;;4.93;3.85;;;;;;;17.74;73.67;95562.94;5017805;28;20206;-88
2023/05/07 06:41:42;;;;;;;6.20;3.75;;;;;;;17.85;72.68;95561.41;5016072;28;20578;-88
2023/05/07 06:44:19;;;;;;;3.72;3.42;;;;;;;17.95;72.54;95567.66;5017077;28;20195;-87
2023/05/07 06:46:56;;;;;;;3.50;3.13;;;;;;;18.01;72.08;95567.78;5017619;28;20219;-87
2023/05/07 06:49:22;;;;;;;3.90;3.50;;;;;;;17.99;70.51;95569.81;5016024;28;20237;-88
2023/05/07 06:51:51;;;;;;;5.50;3.90;;;;;;;18.00;69.72;95572.19;5013758;28;20261;-89
2023/05/07 06:54:17;;;;;;;3.83;3.50;;;;;;;18.06;69.86;95573.91;5014756;28;20213;-88
2023/05/07 06:56:44;;;;;;;5.35;3.40;;;;;;;18.17;69.38;95574.94;5012783;28;20218;-89
2023/05/07 06:59:13;;;;;;;3.10;2.88;;;;;;;18.28;70.37;95580.16;5013148;28;20207;-89
2023/05/07 07:01:42;;;;;;;3.25;2.95;;;;;;;18.33;69.65;95578.72;5012538;28;20257;-89
2023/05/07 07:04:10;;;;;;;3.30;2.90;;;;;;;18.50;69.63;95582.25;5013613;28;20233;-90
2023/05/07 07:06:39;;;;;;;3.53;3.22;;;;;;;18.58;67.77;95579.31;5013229;28;20253;-89
2023/05/07 07:09:17;;;;;;;3.42;3.13;;;;;;;18.70;68.21;95577.50;5003150;28;20281;-89
2023/05/07 07:11:51;;;;;;;3.28;2.97;;;;;;;18.83;67.72;95574.69;5010590;28;20235;-88
2023/05/07 07:14:20;;;;;;;5.32;3.00;;;;;;;18.97;65.32;95573.44;5010939;28;20198;-90
2023/05/07 07:16:50;;;;;;;3.53;3.20;;;;;;;19.07;64.50;95572.84;5011701;28;20234;-89
2023/05/07 07:19:21;;;;;;;4.88;3.30;;;;;;;19.10;63.85;95571.59;5012897;28;20305;-88
2023/05/07 07:22:00;;;;;;;3.30;2.75;;;;;;;19.19;64.58;95567.63;5011571;28;20202;-88
2023/05/07 07:24:41;;;;;;;3.20;3.00;;;;;;;19.34;63.82;95573.13;5012860;28;20266;-89
2023/05/07 07:27:11;;;;;;;3.17;2.95;;;;;;;19.42;63.54;95577.22;5009852;28;20704;-88
2023/05/07 07:29:48;;;;;;;3.70;3.30;;;;;;;19.51;62.94;95576.63;5012992;28;20207;-88
2023/05/07 07:32:23;;;;;;;3.28;2.97;;;;;;;19.54;61.53;95577.97;5005330;28;20194;-88
2023/05/07 07:35:02;;;;;;;3.28;2.85;;;;;;;19.62;61.45;95573.19;5012930;28;20229;-88
2023/05/07 07:37:30;;;;;;;3.88;3.28;;;;;;;19.68;59.93;95574.06;5012067;28;20276;-88
2023/05/07 07:39:56;;;;;;;3.00;2.70;;;;;;;19.81;59.69;95573.00;5012263;28;20202;-88
2023/05/07 07:42:23;;;;;;;3.35;2.83;;;;;;;19.74;59.33;95578.38;5012045;28;20596;-88
2023/05/07 07:44:49;;;;;;;2.97;2.70;;;;;;;19.90;61.35;95579.44;5011645;28;20238;-88
2023/05/07 07:47:18;;;;;;;2.92;2.65;;;;;;;19.97;59.66;95585.31;5011952;28;20238;-88
2023/05/07 07:49:57;;;;;;;2.72;2.53;;;;;;;20.10;59.63;95584.22;5011701;28;20203;-89
2023/05/07 07:52:26;;;;;;;3.75;2.72;;;;;;;20.22;59.05;95584.94;5010954;28;20222;-88
2023/05/07 07:54:52;;;;;;;3.47;2.80;;;;;;;20.28;58.64;95586.59;5011099;28;20294;-88
2023/05/07 07:57:19;;;;;;;3.63;2.63;;;;;;;20.39;59.35;95583.16;5010892;28;21015;-86
2023/05/07 07:59:50;;;;;;;7.25;3.65;;;;;;;20.58;58.91;95583.72;5017486;28;20314;-86
2023/05/07 08:02:21;;;;;;;2.90;2.70;;;;;;;20.75;58.68;95586.31;5018329;28;20202;-85
2023/05/07 08:04:48;;;;;;;3.38;3.03;;;;;;;20.91;57.55;95583.69;5020212;28;20659;-86
2023/05/07 08:07:39;;;;;;;3.80;3.40;;;;;;;20.95;57.92;95571.69;5015270;28;20676;-86
2023/05/07 08:10:10;;;;;;;9.10;7.72;;;;;;;21.16;57.88;95577.19;5012739;28;20207;-87
2023/05/07 08:12:47;;;;;;;4.28;3.20;;;;;;;21.30;57.89;95571.38;5015906;28;20298;-88
2023/05/07 08:15:28;;;;;;;3.40;2.88;;;;;;;21.50;57.57;95576.06;5016814;28;20210;-89
2023/05/07 08:18:06;;;;;;;6.35;2.70;;;;;;;21.62;57.15;95575.94;5090998;23;20238;-88
2023/05/07 08:25:01;;;;;;;2.85;2.65;;;;;;;21.68;56.32;95588.06;4873218;28;20285;-88
2023/05/07 08:27:27;;;;;;;4.82;2.90;;;;;;;21.77;55.80;95585.78;4949888;28;20237;-89
2023/05/07 08:29:54;;;;;;;3.72;2.88;;;;;;;21.93;55.62;95579.66;4954068;28;20216;-88
2023/05/07 08:32:47;;;;;;;15.50;14.05;;;;;;;22.09;55.32;95578.81;4973703;28;20207;-90
2023/05/07 08:35:20;;;;;;;4.68;4.30;;;;;;;22.21;54.88;95589.91;5000338;28;20210;-89
2023/05/07 08:37:47;;;;;;;3.65;3.35;;;;;;;22.36;55.13;95586.63;5010270;28;20243;-89
2023/05/07 08:40:19;;;;;;;3.33;3.05;;;;;;;22.23;53.71;95585.22;4994059;28;20203;-87
2023/05/07 08:42:59;;;;;;;3.15;2.80;;;;;;;22.15;53.91;95592.72;4995508;28;20208;-87
2023/05/07 08:52:11;;;;;;;3.22;2.70;;;;;;;22.69;52.30;95596.88;4993363;28;20211;-87
2023/05/07 08:55:02;;;;;;;2.88;2.55;;;;;;;22.68;51.45;95595.28;4998415;28;20231;-87
2023/05/07 08:57:47;;;;;;;2.80;2.60;;;;;;;22.73;49.82;95594.50;4996280;28;20261;-89
2023/05/07 09:00:28;;;;;;;3.10;2.80;;;;;;;22.78;51.05;95594.59;5007848;28;20249;-88
2023/05/07 09:03:03;;;;;;;2.65;2.45;;;;;;;22.65;50.50;95593.16;5000709;28;20197;-88
2023/05/07 09:05:32;;;;;;;5.80;2.70;;;;;;;22.65;50.56;95587.91;4995032;28;20195;-88
2023/05/07 09:08:00;;;;;;;3.42;3.00;;;;;;;22.70;50.54;95593.22;4992825;28;20223;-89
2023/05/07 09:10:30;;;;;;;7.97;6.10;;;;;;;22.87;51.42;95600.97;4995950;28;20306;-88
2023/05/07 09:13:20;;;;;;;3.08;2.78;;;;;;;23.01;49.91;95596.03;4974165;28;20215;-92
2023/05/07 09:15:47;;;;;;;2.75;2.28;;;;;;;23.07;51.21;95593.19;4971743;28;20210;-89
2023/05/07 09:18:19;;;;;;;2.83;2.05;;;;;;;23.22;48.68;95591.69;4996310;28;20332;-90
2023/05/07 09:20:50;;;;;;;2.58;2.35;;;;;;;23.34;48.41;95595.69;5006605;28;20212;-90
2023/05/07 09:23:17;;;;;;;2.97;2.63;;;;;;;23.14;48.75;95585.06;4997096;28;20222;-88
2023/05/07 09:25:43;;;;;;;2.50;2.30;;;;;;;23.09;49.97;95590.31;4992718;28;20204;-88
2023/05/07 09:28:11;;;;;;;4.45;2.70;;;;;;;23.04;48.93;95577.16;5004577;28;20790;-88
2023/05/07 09:30:37;;;;;;;2.15;1.95;;;;;;;23.17;46.73;95581.16;5012917;28;20199;-87
2023/05/07 09:33:05;;;;;;;3.55;2.20;;;;;;;23.27;45.52;95582.00;5015557;28;20202;-88
2023/05/07 09:35:35;;;;;;;2.25;2.05;;;;;;;23.39;47.46;95585.19;5015558;28;20202;-88
2023/05/07 09:38:05;;;;;;;4.97;4.30;;;;;;;23.51;47.08;95582.34;5014710;28;20242;-90
2023/05/07 09:40:32;;;;;;;6.53;4.40;;;;;;;23.75;48.16;95580.09;4997238;28;20225;-87
2023/05/07 09:43:14;;;;;;;5.28;3.60;;;;;;;23.59;48.66;95584.50;4999183;28;20211;-87
2023/05/07 09:45:41;;;;;;;5.40;3.75;;;;;;;23.55;47.04;95578.19;4996917;28;20207;-88
2023/05/07 09:48:09;;;;;;;3.05;2.80;;;;;;;23.67;46.71;95576.09;4999859;28;20211;-89
2023/05/07 09:50:40;;;;;;;5.45;3.92;;;;;;;23.74;46.38;95578.50;5003185;28;20199;-89
2023/05/07 09:53:10;;;;;;;3.65;2.60;;;;;;;23.84;46.88;95573.28;4995200;28;20195;-88
2023/05/07 09:55:38;;;;;;;4.18;2.80;;;;;;;23.94;48.44;95573.28;4993579;28;20230;-89
2023/05/07 09:58:07;;;;;;;4.15;3.05;;;;;;;24.02;46.95;95574.63;5002699;28;20363;-88
2023/05/07 10:00:36;;;;;;;2.47;2.22;;;;;;;23.87;47.13;95567.47;5004052;28;20196;-89
2023/05/07 10:03:03;;;;;;;3.35;2.80;;;;;;;23.91;46.82;95575.66;4993782;28;20200;-89
2023/05/07 10:05:30;;;;;;;2.30;2.10;;;;;;;23.69;45.98;95573.22;4993993;28;20203;-89
2023/05/07 10:07:58;;;;;;;13.88;12.20;;;;;;;23.84;47.28;95572.50;5002717;28;20946;-89
2023/05/07 10:10:28;;;;;;;7.80;6.93;;;;;;;23.91;46.16;95571.19;5002239;28;20206;-89
2023/05/07 10:12:56;;;;;;;3.20;2.90;;;;;;;24.05;46.00;95580.13;4994967;28;20273;-88
2023/05/07 10:15:24;;;;;;;3.50;2.60;;;;;;;23.96;45.49;95579.09;4995164;28;20204;-89
2023/05/07 10:17:54;;;;;;;2.47;2.28;;;;;;;24.08;45.93;95579.63;5006353;28;20223;-88
2023/05/07 10:20:20;;;;;;;2.13;2.00;;;;;;;24.04;45.38;95572.53;5007937;28;20224;-88
2023/05/07 10:22:55;;;;;;;2.13;2.03;;;;;;;24.13;45.75;95572.78;5019309;28;20209;-88
2023/05/07 10:25:26;;;;;;;2.10;1.90;;;;;;;24.05;46.93;95569.63;5025565;28;20202;-88
2023/05/07 10:27:54;;;;;;;1.70;1.60;;;;;;;24.00;43.96;95568.84;5021920;28;20222;-88
2023/05/07 10:30:38;;;;;;;2.47;1.95;;;;;;;24.09;42.82;95573.31;5012493;28;20204;-89
2023/05/07 10:33:09;;;;;;;2.58;2.15;;;;;;;23.90;42.98;95579.31;5009726;28;20230;-88
2023/05/07 10:35:40;;;;;;;3.38;2.05;;;;;;;23.76;43.26;95574.56;5006336;28;20234;-89
2023/05/07 10:38:10;;;;;;;2.30;1.90;;;;;;;23.66;44.67;95579.81;5007286;28;20748;-90
2023/05/07 10:40:37;;;;;;;2.20;2.00;;;;;;;23.77;44.84;95578.00;5001289;28;20568;-90
2023/05/07 10:43:05;;;;;;;2.90;1.80;;;;;;;23.76;44.83;95579.03;4996528;28;20591;-90
2023/05/07 10:45:32;;;;;;;2.50;2.30;;;;;;;24.01;43.63;95584.38;5008614;28;20202;-89
2023/05/07 10:48:08;;;;;;;2.10;1.95;;;;;;;24.33;44.20;95578.09;5011903;28;20219;-88
2023/05/07 10:50:36;;;;;;;2.03;1.85;;;;;;;24.54;44.87;95566.50;5001975;28;20231;-88
2023/05/07 10:53:26;;;;;;;2.90;1.80;;;;;;;24.46;41.66;95564.41;5002319;28;20205;-89
2023/05/07 10:56:26;;;;;;;2.70;2.15;;;;;;;24.06;42.40;95567.78;5011098;28;20218;-86
2023/05/07 10:58:52;;;;;;;12.80;3.28;;;;;;;23.83;42.54;95578.81;5003879;28;20215;-85
2023/05/07 11:01:53;;;;;;;4.90;2.00;;;;;;;23.75;44.38;95578.25;4997515;28;20207;-89
2023/05/07 11:04:24;;;;;;;3.10;2.10;;;;;;;23.77;43.33;95572.72;4989873;28;20207;-88
2023/05/07 11:07:21;;;;;;;14.88;12.40;;;;;;;23.85;42.52;95566.97;4988845;28;20219;-88
2023/05/07 11:10:12;;;;;;;3.80;3.50;;;;;;;23.92;43.57;95572.75;4968833;28;20200;-89
2023/05/07 11:12:51;;;;;;;3.03;2.08;;;;;;;24.05;43.01;95566.22;4982259;28;20204;-88
2023/05/07 11:15:35;;;;;;;6.15;2.80;;;;;;;24.30;42.18;95561.00;4988526;28;20199;-88
2023/05/07 11:18:04;;;;;;;2.45;2.15;;;;;;;24.51;42.85;95566.25;4995960;28;20238;-88
2023/05/07 11:20:55;;;;;;;1.85;1.73;;;;;;;24.62;41.18;95565.19;5005602;28;20227;-89
2023/05/07 11:23:59;;;;;;;2.03;1.67;;;;;;;24.72;41.27;95565.97;4971948;28;20266;-89
2023/05/07 11:26:30;;;;;;;1.90;1.70;;;;;;;24.78;41.40;95559.66;5006787;28;20283;-88
2023/05/07 11:28:59;;;;;;;1.80;1.70;;;;;;;24.85;41.64;95558.56;4988067;28;20199;-88
2023/05/07 11:31:33;;;;;;;2.05;1.95;;;;;;;24.78;40.91;95558.84;4989459;28;20240;-88
2023/05/07 11:34:03;;;;;;;1.85;1.75;;;;;;;24.85;40.91;95558.56;5008206;28;20672;-88
2023/05/07 11:36:33;;;;;;;1.90;1.70;;;;;;;24.85;40.87;95545.41;5001373;28;20196;-88
2023/05/07 11:38:59;;;;;;;2.28;2.08;;;;;;;24.62;41.62;95557.31;4983280;28;20219;-88
2023/05/07 11:41:34;;;;;;;2.47;2.00;;;;;;;24.31;42.18;95554.69;4987938;28;20227;-88
2023/05/07 11:44:03;;;;;;;2.03;1.88;;;;;;;24.33;42.41;95546.53;4987588;28;20612;-89
2023/05/07 11:46:31;;;;;;;2.95;2.17;;;;;;;24.56;42.48;95543.34;5002583;28;20293;-89
2023/05/07 11:49:13;;;;;;;2.10;2.00;;;;;;;24.56;40.73;95548.63;5011498;28;20276;-90
2023/05/07 11:51:43;;;;;;;2.78;2.30;;;;;;;24.44;41.30;95545.44;5011119;28;20219;-89
2023/05/07 11:54:11;;;;;;;2.08;1.90;;;;;;;24.44;41.23;95542.81;5011394;28;20202;-90
2023/05/07 11:56:52;;;;;;;2.22;2.03;;;;;;;24.58;42.60;95541.25;5007655;28;20199;-90
2023/05/07 11:59:31;;;;;;;2.22;2.03;;;;;;;24.60;41.95;95547.03;5003345;28;20226;-89
2023/05/07 12:02:02;;;;;;;2.65;2.15;;;;;;;24.67;41.24;95552.81;4991601;28;20229;-89
2023/05/07 12:04:41;;;;;;;1.80;1.70;;;;;;;24.73;42.04;95550.97;4986915;28;20199;-88
2023/05/07 12:07:14;;;;;;;2.30;2.10;;;;;;;24.44;41.72;95543.59;4989985;28;20885;-89
2023/05/07 12:09:43;;;;;;;9.18;8.23;;;;;;;24.27;42.24;95542.28;4989458;28;20278;-89
2023/05/07 12:12:09;;;;;;;4.38;2.90;;;;;;;24.11;42.60;95538.84;4990976;28;20286;-88
2023/05/07 12:14:38;;;;;;;2.47;2.15;;;;;;;24.22;43.94;95540.44;4994555;28;20258;-88
2023/05/07 12:17:06;;;;;;;2.78;2.15;;;;;;;24.30;43.24;95534.66;4976112;28;20239;-88
2023/05/07 12:19:34;;;;;;;2.78;2.25;;;;;;;24.43;42.67;95536.78;4991150;28;20237;-89
2023/05/07 12:22:02;;;;;;;1.95;1.85;;;;;;;24.54;42.29;95521.75;4991242;28;20207;-89
2023/05/07 12:24:30;;;;;;;2.47;2.10;;;;;;;24.68;41.94;95527.25;4990859;28;20207;-88
2023/05/07 12:26:58;;;;;;;2.60;2.13;;;;;;;24.73;41.11;95537.78;4972104;28;20242;-90